createdAt,value
2019-01-04T00:02:04.469Z,89.35
2019-01-04T00:04:36.308Z,89.36
2019-01-04T00:07:08.144Z,89.38
2019-01-04T00:09:39.981Z,89.41
2019-01-04T00:12:11.796Z,89.40
2019-01-04T00:14:43.627Z,89.42
2019-01-04T00:17:15.427Z,89.44
2019-01-04T00:19:47.252Z,89.44
2019-01-04T00:22:19.474Z,89.47
2019-01-04T00:24:51.625Z,89.49
2019-01-04T00:27:23.437Z,89.50
2019-01-04T00:29:55.265Z,89.52
2019-01-04T00:32:27.085Z,89.55
2019-01-04T00:34:58.910Z,89.62
2019-01-04T00:37:30.718Z,89.66
2019-01-04T00:40:02.824Z,89.70
2019-01-04T00:42:34.705Z,89.71
2019-01-04T00:45:06.820Z,89.82
2019-01-04T00:47:38.625Z,89.82
2019-01-04T00:50:10.502Z,89.87
2019-01-04T00:52:45.471Z,89.97
2019-01-04T00:56:17.872Z,90.01
2019-01-04T00:59:28.256Z,90.06
2019-01-04T01:03:10.095Z,90.15
2019-01-04T01:06:37.302Z,90.24
2019-01-04T01:09:39.370Z,90.31
2019-01-04T01:13:16.175Z,90.37
2019-01-04T01:16:45.318Z,90.47
2019-01-04T01:20:31.742Z,90.55
2019-01-04T01:24:05.902Z,90.62
2019-01-04T01:27:50.684Z,90.70
2019-01-04T01:31:19.795Z,90.79
2019-01-04T01:35:08.947Z,90.85
2019-01-04T01:38:34.637Z,90.90
2019-01-04T01:42:13.445Z,90.95
2019-01-04T01:45:51.844Z,91.06
2019-01-04T01:49:16.027Z,91.08
2019-01-04T01:52:01.728Z,91.16
2019-01-04T01:54:33.454Z,91.22
2019-01-04T01:57:05.274Z,91.25
2019-01-04T01:59:37.171Z,91.26
2019-01-04T02:02:08.967Z,91.29
2019-01-04T02:04:41.277Z,91.32
2019-01-04T02:07:13.403Z,91.32
2019-01-04T02:09:45.219Z,91.29
2019-01-04T02:12:17.169Z,91.33
2019-01-04T02:14:49.093Z,91.30
2019-01-04T02:17:20.893Z,91.33
2019-01-04T02:19:52.774Z,91.33
2019-01-04T02:22:24.565Z,91.31
2019-01-04T02:24:56.444Z,91.33
2019-01-04T02:27:28.248Z,91.25
2019-01-04T02:30:00.079Z,91.28
2019-01-04T02:32:31.878Z,91.25
2019-01-04T02:35:03.690Z,91.27
2019-01-04T02:37:35.478Z,91.25
2019-01-04T02:40:07.277Z,91.22
2019-01-04T02:42:39.111Z,91.18
2019-01-04T02:45:10.962Z,91.20
2019-01-04T02:47:42.849Z,91.18
2019-01-04T02:50:14.983Z,91.18
2019-01-04T02:52:46.804Z,91.16
2019-01-04T02:55:18.607Z,91.15
2019-01-04T02:57:50.406Z,91.12
2019-01-04T03:00:22.249Z,91.10
2019-01-04T03:02:54.070Z,91.10
2019-01-04T03:05:25.982Z,91.10
2019-01-04T03:07:57.791Z,91.10
2019-01-04T03:10:29.616Z,91.07
2019-01-04T03:13:04.430Z,91.11
2019-01-04T03:15:36.261Z,91.05
2019-01-04T03:18:08.053Z,91.07
2019-01-04T03:20:39.862Z,91.03
2019-01-04T03:23:11.646Z,91.03
2019-01-04T03:25:43.479Z,91.01
2019-01-04T03:28:15.395Z,90.97
2019-01-04T03:30:47.209Z,90.96
2019-01-04T03:33:19.030Z,90.94
2019-01-04T03:35:51.251Z,90.93
2019-01-04T03:38:23.055Z,90.90
2019-01-04T03:40:54.879Z,90.90
2019-01-04T03:43:26.808Z,90.85
2019-01-04T03:45:58.619Z,90.83
2019-01-04T03:48:30.622Z,90.82
2019-01-04T03:51:03.104Z,90.78
2019-01-04T03:53:34.909Z,90.75
2019-01-04T03:56:06.861Z,90.73
2019-01-04T03:58:38.651Z,90.70
2019-01-04T04:01:10.483Z,90.67
2019-01-04T04:03:42.268Z,90.64
2019-01-04T04:06:14.099Z,90.63
2019-01-04T04:08:45.911Z,90.60
2019-01-04T04:11:17.707Z,90.60
2019-01-04T04:13:49.497Z,90.58
2019-01-04T04:16:21.321Z,90.54
2019-01-04T04:18:53.385Z,90.53
2019-01-04T04:21:25.197Z,90.49
2019-01-04T04:23:56.995Z,90.50
2019-01-04T04:26:28.905Z,90.45
2019-01-04T04:29:00.719Z,90.47
2019-01-04T04:31:32.528Z,90.44
2019-01-04T04:34:04.603Z,90.38
2019-01-04T04:36:36.432Z,90.38
2019-01-04T04:39:09.268Z,90.36
2019-01-04T04:41:41.094Z,90.30
2019-01-04T04:44:12.983Z,90.29
2019-01-04T04:46:44.782Z,90.24
2019-01-04T04:49:16.593Z,90.21
2019-01-04T04:51:48.709Z,90.15
2019-01-04T04:54:20.515Z,90.10
2019-01-04T04:56:52.335Z,90.09
2019-01-04T04:59:24.145Z,90.05
2019-01-04T05:01:55.965Z,90.00
2019-01-04T05:04:27.809Z,90.00
2019-01-04T05:07:00.007Z,89.99
2019-01-04T05:09:32.138Z,89.97
2019-01-04T05:12:04.678Z,89.96
2019-01-04T05:14:36.783Z,89.95
2019-01-04T05:17:08.600Z,89.95
2019-01-04T05:19:40.410Z,89.93
2019-01-04T05:22:12.486Z,89.94
2019-01-04T05:24:44.317Z,89.98
2019-01-04T05:27:16.126Z,89.97
2019-01-04T05:29:48.310Z,89.97
2019-01-04T05:32:20.498Z,90.01
2019-01-04T05:34:52.310Z,90.02
2019-01-04T05:37:24.219Z,90.05
2019-01-04T05:39:56.038Z,90.09
2019-01-04T05:42:27.855Z,90.14
2019-01-04T05:44:59.797Z,90.16
2019-01-04T05:47:31.604Z,90.22
2019-01-04T05:50:03.800Z,90.24
2019-01-04T05:52:35.947Z,90.32
2019-01-04T05:55:08.007Z,90.37
2019-01-04T05:57:39.802Z,90.44
2019-01-04T06:00:12.116Z,90.47
2019-01-04T06:02:44.205Z,90.53
2019-01-04T06:05:16.057Z,90.57
2019-01-04T06:07:48.142Z,90.60
2019-01-04T06:10:19.956Z,90.63
2019-01-04T06:12:51.759Z,90.68
2019-01-04T06:15:23.570Z,90.73
2019-01-04T06:17:55.481Z,90.76
2019-01-04T06:20:27.406Z,90.79
2019-01-04T06:22:59.220Z,90.82
2019-01-04T06:25:32.105Z,90.87
2019-01-04T06:28:03.964Z,90.89
2019-01-04T06:30:35.837Z,90.90
2019-01-04T06:33:07.927Z,90.96
2019-01-04T06:35:40.030Z,91.00
2019-01-04T06:38:11.955Z,91.03
2019-01-04T06:40:44.171Z,91.05
2019-01-04T06:43:16.287Z,91.10
2019-01-04T06:45:48.121Z,91.12
2019-01-04T06:48:19.997Z,91.18
2019-01-04T06:50:51.828Z,91.21
2019-01-04T06:53:23.667Z,91.22
2019-01-04T06:55:59.679Z,91.24
2019-01-04T06:58:31.508Z,91.29
2019-01-04T07:01:22.772Z,91.31
2019-01-04T07:03:54.881Z,91.31
2019-01-04T07:06:26.733Z,91.35
2019-01-04T07:08:58.879Z,91.35
2019-01-04T07:11:30.697Z,91.37
2019-01-04T07:14:02.599Z,91.39
2019-01-04T07:16:34.417Z,91.35
2019-01-04T07:19:06.321Z,91.35
2019-01-04T07:21:39.324Z,91.35
2019-01-04T07:24:10.140Z,91.34
2019-01-04T07:26:41.999Z,91.34
2019-01-04T07:29:15.468Z,91.31
2019-01-04T07:31:47.381Z,91.27
2019-01-04T07:34:21.315Z,91.25
2019-01-04T07:36:53.174Z,91.23
2019-01-04T07:39:25.077Z,91.18
2019-01-04T07:41:56.898Z,91.17
2019-01-04T07:44:28.816Z,91.12
2019-01-04T07:47:00.649Z,91.09
2019-01-04T07:49:32.858Z,91.05
2019-01-04T07:52:04.985Z,91.02
2019-01-04T07:54:37.289Z,90.99
2019-01-04T07:57:09.413Z,90.99
2019-01-04T07:59:41.301Z,90.96
2019-01-04T08:02:39.243Z,90.96
2019-01-04T08:05:14.681Z,90.93
2019-01-04T08:07:46.519Z,90.93
2019-01-04T08:10:19.362Z,90.91
2019-01-04T08:12:51.478Z,90.88
2019-01-04T08:15:24.273Z,90.87
2019-01-04T08:17:56.709Z,90.85
2019-01-04T08:20:29.002Z,90.83
2019-01-04T08:23:07.152Z,90.79
2019-01-04T08:25:38.980Z,90.76
2019-01-04T08:28:11.034Z,90.67
2019-01-04T08:30:42.898Z,90.63
2019-01-04T08:33:14.890Z,90.59
2019-01-04T08:35:46.967Z,90.51
2019-01-04T08:38:18.841Z,90.44
2019-01-04T08:40:50.757Z,90.36
2019-01-04T08:43:22.616Z,90.31
2019-01-04T08:45:54.432Z,90.27
2019-01-04T08:48:26.264Z,90.18
2019-01-04T08:50:58.090Z,90.08
2019-01-04T08:54:03.734Z,90.00
2019-01-04T08:56:38.702Z,89.92
2019-01-04T08:59:10.538Z,89.83
2019-01-04T09:01:43.690Z,89.71
2019-01-04T09:04:15.839Z,89.62
2019-01-04T09:06:47.967Z,89.53
2019-01-04T09:09:19.863Z,89.42
2019-01-04T09:11:51.668Z,89.31
2019-01-04T09:14:23.480Z,89.23
2019-01-04T09:16:55.576Z,89.12
2019-01-04T09:19:27.519Z,89.02
2019-01-04T09:21:59.971Z,88.94
2019-01-04T09:24:32.081Z,88.86
2019-01-04T09:27:04.461Z,88.74
2019-01-04T09:29:37.908Z,88.64
2019-01-04T09:32:14.476Z,88.50
2019-01-04T09:34:46.540Z,88.37
2019-01-04T09:37:18.435Z,88.27
2019-01-04T09:39:50.222Z,88.20
2019-01-04T09:42:34.100Z,88.09
2019-01-04T09:45:14.717Z,87.99
2019-01-04T09:47:46.554Z,87.90
2019-01-04T09:50:18.524Z,87.84
2019-01-04T09:52:50.321Z,87.73
2019-01-04T09:55:22.139Z,87.65
2019-01-04T09:57:53.947Z,87.56
2019-01-04T10:00:26.582Z,87.50
2019-01-04T10:02:59.067Z,87.40
2019-01-04T10:05:31.111Z,87.32
2019-01-04T10:08:02.970Z,87.21
2019-01-04T10:10:34.766Z,87.09
2019-01-04T10:13:06.586Z,86.97
2019-01-04T10:15:38.992Z,86.92
2019-01-04T10:18:11.474Z,86.84
2019-01-04T10:20:43.826Z,86.67
2019-01-04T10:23:16.304Z,86.53
2019-01-04T10:26:34.424Z,86.44
2019-01-04T10:29:06.231Z,86.33
2019-01-04T10:31:38.644Z,86.12
2019-01-04T10:34:12.542Z,86.05
2019-01-04T10:36:45.020Z,85.92
2019-01-04T10:39:17.415Z,85.78
2019-01-04T10:41:49.800Z,85.62
2019-01-04T10:44:25.403Z,85.52
2019-01-04T10:46:57.794Z,85.42
2019-01-04T10:49:30.201Z,85.37
2019-01-04T10:52:02.881Z,85.25
2019-01-04T10:54:34.775Z,85.17
2019-01-04T10:57:07.377Z,85.11
2019-01-04T10:59:39.840Z,85.03
2019-01-04T11:02:12.204Z,84.92
2019-01-04T11:04:44.573Z,84.77
2019-01-04T11:07:17.307Z,84.63
2019-01-04T11:09:49.231Z,84.45
2019-01-04T11:12:22.040Z,84.33
2019-01-04T11:14:54.375Z,84.22
2019-01-04T11:17:26.347Z,84.01
2019-01-04T11:19:59.192Z,83.85
2019-01-04T11:23:01.324Z,83.70
2019-01-04T11:26:23.001Z,83.56
2019-01-04T11:29:19.209Z,83.38
2019-01-04T11:32:31.797Z,83.26
2019-01-04T11:36:07.861Z,83.16
2019-01-04T11:39:18.188Z,83.02
2019-01-04T11:42:42.435Z,82.85
2019-01-04T11:46:00.659Z,82.73
2019-01-04T11:49:44.358Z,82.53
2019-01-04T11:52:31.248Z,82.44
2019-01-04T11:55:03.010Z,82.34
2019-01-04T11:57:35.664Z,82.26
2019-01-04T12:00:10.010Z,82.22
2019-01-04T12:02:42.637Z,82.19
2019-01-04T12:05:16.603Z,82.18
2019-01-04T12:07:49.301Z,82.16
2019-01-04T12:10:21.341Z,82.18
2019-01-04T12:12:53.698Z,82.20
2019-01-04T12:15:26.071Z,82.16
2019-01-04T12:18:00.457Z,82.18
2019-01-04T12:20:33.502Z,82.19
2019-01-04T12:23:11.049Z,82.17
2019-01-04T12:25:39.638Z,82.14
2019-01-04T12:28:12.029Z,82.17
2019-01-04T12:30:44.402Z,82.19
2019-01-04T12:33:16.850Z,82.17
2019-01-04T12:35:49.242Z,82.14
2019-01-04T12:38:21.698Z,82.19
2019-01-04T12:40:54.338Z,82.22
2019-01-04T12:43:26.748Z,82.17
2019-01-04T12:45:59.853Z,82.16
2019-01-04T12:48:32.014Z,82.15
2019-01-04T12:51:04.637Z,82.13
2019-01-04T12:53:37.436Z,82.16
2019-01-04T12:56:09.794Z,82.17
2019-01-04T12:58:42.308Z,82.16
2019-01-04T13:01:14.722Z,82.17
2019-01-04T13:03:47.779Z,82.21
2019-01-04T13:06:20.070Z,82.28
2019-01-04T13:08:52.502Z,82.36
2019-01-04T13:11:24.944Z,82.45
2019-01-04T13:13:58.468Z,82.54
2019-01-04T13:16:30.467Z,82.57
2019-01-04T13:19:03.391Z,82.67
2019-01-04T13:21:35.670Z,82.76
2019-01-04T13:24:07.989Z,82.83
2019-01-04T13:26:40.625Z,82.88
2019-01-04T13:29:13.748Z,82.86
2019-01-04T13:31:45.688Z,82.98
2019-01-04T13:34:18.319Z,82.98
2019-01-04T13:36:51.090Z,83.00
2019-01-04T13:39:23.692Z,83.00
2019-01-04T13:41:56.394Z,83.02
2019-01-04T13:44:29.072Z,83.04
2019-01-04T13:47:01.372Z,83.04
2019-01-04T13:49:33.207Z,83.12
2019-01-04T13:52:05.863Z,83.13
2019-01-04T13:54:37.784Z,83.13
2019-01-04T13:57:10.665Z,83.18
2019-01-04T13:59:43.075Z,83.24
2019-01-04T14:02:15.553Z,83.27
2019-01-04T14:04:47.956Z,83.33
2019-01-04T14:07:19.895Z,83.37
2019-01-04T14:09:52.304Z,83.42
2019-01-04T14:12:24.841Z,83.47
2019-01-04T14:14:57.502Z,83.54
2019-01-04T14:17:29.480Z,83.63
2019-01-04T14:20:02.211Z,83.69
2019-01-04T14:22:34.446Z,83.75
2019-01-04T14:25:08.557Z,83.79
2019-01-04T14:27:41.561Z,83.88
2019-01-04T14:30:14.134Z,83.99
2019-01-04T14:32:46.230Z,84.00
2019-01-04T14:35:18.601Z,84.07
2019-01-04T14:37:51.012Z,84.13
2019-01-04T14:40:23.363Z,84.15
2019-01-04T14:42:55.925Z,84.20
2019-01-04T14:45:28.360Z,84.26
2019-01-04T14:48:00.839Z,84.31
2019-01-04T14:50:33.759Z,84.36
2019-01-04T14:53:06.936Z,84.41
2019-01-04T14:55:37.836Z,84.49
2019-01-04T14:58:09.555Z,84.54
2019-01-04T15:00:41.946Z,84.60
2019-01-04T15:03:14.476Z,84.66
2019-01-04T15:05:50.444Z,84.72
2019-01-04T15:08:21.187Z,84.76
2019-01-04T15:10:53.970Z,84.81
2019-01-04T15:13:26.051Z,84.83
2019-01-04T15:15:58.540Z,84.93
2019-01-04T15:18:30.935Z,84.95
2019-01-04T15:21:03.287Z,84.98
2019-01-04T15:23:35.678Z,85.05
2019-01-04T15:26:08.020Z,85.09
2019-01-04T15:28:41.059Z,85.15
2019-01-04T15:31:13.568Z,85.22
2019-01-04T15:33:45.669Z,85.26
2019-01-04T15:36:18.027Z,85.30
2019-01-04T15:38:50.549Z,85.38
2019-01-04T15:41:23.028Z,85.43
2019-01-04T15:43:55.425Z,85.48
2019-01-04T15:46:27.523Z,85.55
2019-01-04T15:48:59.360Z,85.62
2019-01-04T15:51:31.750Z,85.67
2019-01-04T15:54:04.185Z,85.73
2019-01-04T15:56:36.569Z,85.79
2019-01-04T15:59:08.987Z,85.84
2019-01-04T16:01:41.639Z,85.89
2019-01-04T16:04:13.478Z,85.97
2019-01-04T16:06:45.327Z,86.05
2019-01-04T16:09:17.113Z,86.12
2019-01-04T16:11:50.982Z,86.17
2019-01-04T16:14:22.845Z,86.24
2019-01-04T16:16:54.665Z,86.31
2019-01-04T16:19:26.681Z,86.35
2019-01-04T16:21:58.511Z,86.44
2019-01-04T16:24:30.343Z,86.50
2019-01-04T16:27:02.750Z,86.58
2019-01-04T16:29:35.138Z,86.64
2019-01-04T16:32:07.572Z,86.71
2019-01-04T16:34:40.023Z,86.78
2019-01-04T16:37:11.820Z,86.81
2019-01-04T16:39:44.214Z,86.85
2019-01-04T16:42:16.708Z,86.89
2019-01-04T16:44:49.100Z,86.94
2019-01-04T16:47:21.456Z,86.97
2019-01-04T16:49:53.879Z,87.04
2019-01-04T16:52:26.288Z,87.08
2019-01-04T16:54:58.722Z,87.14
2019-01-04T16:57:31.104Z,87.17
2019-01-04T17:00:03.264Z,87.18
2019-01-04T17:02:35.078Z,87.23
2019-01-04T17:05:07.799Z,87.25
2019-01-04T17:07:39.721Z,87.28
2019-01-04T17:10:12.429Z,87.33
2019-01-04T17:12:44.246Z,87.36
2019-01-04T17:15:17.180Z,87.39
2019-01-04T17:17:49.260Z,87.47
2019-01-04T17:20:21.662Z,87.53
2019-01-04T17:22:53.752Z,87.63
2019-01-04T17:25:25.650Z,87.74
2019-01-04T17:27:58.010Z,87.86
2019-01-04T17:30:30.400Z,88.00
2019-01-04T17:33:02.757Z,88.13
2019-01-04T17:35:35.122Z,88.21
2019-01-04T17:38:07.470Z,88.31
2019-01-04T17:40:39.880Z,88.44
2019-01-04T17:43:12.264Z,88.51
2019-01-04T17:45:44.674Z,88.60
2019-01-04T17:48:17.011Z,88.68
2019-01-04T17:50:49.442Z,88.78
2019-01-04T17:53:21.403Z,88.87
2019-01-04T17:55:53.874Z,88.92
2019-01-04T17:58:27.278Z,88.98
2019-01-04T18:01:00.113Z,89.03
2019-01-04T18:03:32.197Z,89.05
2019-01-04T18:06:04.645Z,89.08
2019-01-04T18:08:37.135Z,89.10
2019-01-04T18:11:10.076Z,89.16
2019-01-04T18:13:42.753Z,89.17
2019-01-04T18:16:16.201Z,89.22
2019-01-04T18:18:48.733Z,89.26
2019-01-04T18:21:21.218Z,89.27
2019-01-04T18:23:53.624Z,89.32
2019-01-04T18:26:26.190Z,89.36
2019-01-04T18:28:59.605Z,89.34
2019-01-04T18:31:31.814Z,89.39
2019-01-04T18:34:04.695Z,89.44
2019-01-04T18:36:37.741Z,89.47
2019-01-04T18:39:10.383Z,89.53
2019-01-04T18:41:42.518Z,89.58
2019-01-04T18:44:14.975Z,89.65
2019-01-04T18:46:47.511Z,89.70
2019-01-04T18:49:19.875Z,89.74
2019-01-04T18:51:52.378Z,89.76
2019-01-04T18:54:24.945Z,89.77
2019-01-04T18:56:57.828Z,89.79
2019-01-04T18:59:30.003Z,89.80
2019-01-04T19:02:03.583Z,89.80
2019-01-04T19:04:37.178Z,89.80
2019-01-04T19:07:09.693Z,89.81
2019-01-04T19:09:41.972Z,89.80
2019-01-04T19:12:20.284Z,89.80
2019-01-04T19:14:54.194Z,89.84
2019-01-04T19:17:26.595Z,89.86
2019-01-04T19:19:59.119Z,89.89
2019-01-04T19:22:32.061Z,89.94
2019-01-04T19:25:04.199Z,90.00
2019-01-04T19:27:35.970Z,90.08
2019-01-04T19:30:09.097Z,90.18
2019-01-04T19:32:40.910Z,90.24
2019-01-04T19:35:12.742Z,90.32
2019-01-04T19:37:44.532Z,90.38
2019-01-04T19:40:16.358Z,90.46
2019-01-04T19:42:48.274Z,90.53
2019-01-04T19:45:20.165Z,90.58
2019-01-04T19:47:52.647Z,90.65
2019-01-04T19:50:25.192Z,90.70
2019-01-04T19:52:57.585Z,90.76
2019-01-04T19:55:30.066Z,90.85
2019-01-04T19:58:01.913Z,90.87
2019-01-04T20:00:34.640Z,90.96
2019-01-04T20:03:06.413Z,91.01
2019-01-04T20:07:21.697Z,91.07
2019-01-04T20:11:13.067Z,91.13
2019-01-04T20:15:06.602Z,91.21
2019-01-04T20:18:00.947Z,91.31
2019-01-04T20:21:07.116Z,91.39
2019-01-04T20:24:00.567Z,91.45
2019-01-04T20:26:49.876Z,91.55
2019-01-04T20:29:39.448Z,91.60
2019-01-04T20:32:30.169Z,91.66
2019-01-04T20:35:24.211Z,91.71
2019-01-04T20:38:14.060Z,91.76
2019-01-04T20:41:04.870Z,91.80
2019-01-04T20:43:58.581Z,91.85
2019-01-04T20:47:08.121Z,91.90
2019-01-04T20:50:04.470Z,91.94
2019-01-04T20:53:03.148Z,91.96
2019-01-04T20:55:57.119Z,92.01
2019-01-04T20:58:50.155Z,92.03
2019-01-04T21:01:39.358Z,92.07
2019-01-04T21:04:42.712Z,92.14
2019-01-04T21:07:46.601Z,92.17
2019-01-04T21:10:50.292Z,92.22
2019-01-04T21:13:47.298Z,92.27
2019-01-04T21:16:37.247Z,92.32
2019-01-04T21:19:27.679Z,92.39
2019-01-04T21:22:18.367Z,92.44
2019-01-04T21:25:04.937Z,92.50
2019-01-04T21:27:58.970Z,92.54
2019-01-04T21:30:58.812Z,92.58
2019-01-04T21:33:56.030Z,92.63
2019-01-04T21:36:53.286Z,92.70
2019-01-04T21:39:50.282Z,92.75
2019-01-04T21:42:41.521Z,92.82
2019-01-04T21:45:35.849Z,92.90
2019-01-04T21:48:26.160Z,92.94
2019-01-04T21:51:15.817Z,92.98
2019-01-04T21:54:03.538Z,93.04
2019-01-04T21:56:53.545Z,93.10
2019-01-04T21:59:49.598Z,93.15
2019-01-04T22:02:39.450Z,93.19
2019-01-04T22:05:43.149Z,93.22
2019-01-04T22:08:32.993Z,93.27
2019-01-04T22:11:22.331Z,93.31
2019-01-04T22:14:22.323Z,93.34
2019-01-04T22:17:12.193Z,93.39
2019-01-04T22:20:18.861Z,93.43
2019-01-04T22:23:22.069Z,93.46
2019-01-04T22:26:28.682Z,93.48
2019-01-04T22:29:18.802Z,93.52
2019-01-04T22:32:09.451Z,93.56
2019-01-04T22:35:00.272Z,93.57
2019-01-04T22:37:47.589Z,93.62
2019-01-04T22:40:48.154Z,93.62
2019-01-04T22:43:58.235Z,93.63
2019-01-04T22:46:42.628Z,93.65
2019-01-04T22:49:31.765Z,93.68
2019-01-04T22:52:35.309Z,93.70
2019-01-04T22:55:29.323Z,93.73
2019-01-04T22:58:39.141Z,93.75
2019-01-04T23:01:48.713Z,93.78
2019-01-04T23:04:39.844Z,93.79
2019-01-04T23:07:29.759Z,93.80
2019-01-04T23:10:36.148Z,93.82
2019-01-04T23:13:26.169Z,93.82
2019-01-04T23:16:16.140Z,93.84
2019-01-04T23:19:16.454Z,93.85
2019-01-04T23:22:31.084Z,93.86
2019-01-04T23:25:19.402Z,93.88
2019-01-04T23:28:05.733Z,93.88
2019-01-04T23:30:55.269Z,93.88
2019-01-04T23:33:46.592Z,93.88
2019-01-04T23:36:38.037Z,93.88
2019-01-04T23:39:24.803Z,93.88
2019-01-04T23:42:18.111Z,93.89
2019-01-04T23:45:27.307Z,93.89
2019-01-04T23:48:25.603Z,93.87
2019-01-04T23:51:12.208Z,93.87
2019-01-04T23:54:01.991Z,93.87
2019-01-04T23:56:59.073Z,93.90
2019-01-04T23:59:59.585Z,93.89
